Time;durP1;ratioP1;P1;durP2;ratioP2;P2;SDS_P1;SDS_P2;PMS_P1;PMS_P2;Temp;Humidity;BMP_temperature;BMP_pressure;BME280_temperature;BME280_humidity;BME280_pressure;Samples;Min_cycle;Max_cycle;Signal;HPM_P1;HPM_P2
2021/12/24 00:00:17;;;;;;;0.30;0.30;;;;;;;;;;5042898;28;20029;-80
2021/12/24 00:02:43;;;;;;;0.28;0.28;;;;;;;;;;5043508;28;20056;-80
2021/12/24 00:05:10;;;;;;;0.20;0.20;;;;;;;;;;5042051;28;20033;-80
2021/12/24 00:07:36;;;;;;;0.20;0.20;;;;;;;;;;5045674;28;20032;-80
2021/12/24 00:10:02;;;;;;;0.20;0.20;;;;;;;;;;5042642;28;20025;-79
2021/12/24 00:12:32;;;;;;;0.20;0.20;;;;;;;;;;5031445;28;20028;-78
2021/12/24 00:15:03;;;;;;;0.20;0.20;;;;;;;;;;5047576;28;20512;-78
2021/12/24 00:17:33;;;;;;;0.20;0.20;;;;;;;;;;5042384;28;20770;-79
2021/12/24 00:20:24;;;;;;;0.20;0.20;;;;;;;;;;5042936;28;20718;-79
2021/12/24 00:36:45;;;;;;;0.20;0.20;;;;;;;;;;5041565;28;20660;-77
2021/12/24 00:39:11;;;;;;;0.20;0.20;;;;;;;;;;5041262;28;20068;-77
2021/12/24 00:41:38;;;;;;;0.20;0.20;;;;;;;;;;5045102;28;20037;-76
2021/12/24 00:44:04;;;;;;;0.20;0.20;;;;;;;;;;5041308;28;20084;-77
2021/12/24 00:46:31;;;;;;;0.22;0.22;;;;;;;;;;5052285;28;20640;-77
2021/12/24 00:49:01;;;;;;;0.30;0.30;;;;;;;;;;5033602;28;20140;-76
2021/12/24 00:51:42;;;;;;;0.20;0.20;;;;;;;;;;5044184;28;20036;-77
2021/12/24 00:56:54;;;;;;;0.20;0.20;;;;;;;;;;5039969;28;20044;-76
2021/12/24 00:59:20;;;;;;;0.20;0.20;;;;;;;;;;5042310;28;20030;-76
2021/12/24 01:01:46;;;;;;;0.20;0.20;;;;;;;;;;5047779;28;20037;-76
2021/12/24 01:04:12;;;;;;;0.20;0.20;;;;;;;;;;5064186;28;20032;-77
2021/12/24 01:06:38;;;;;;;0.20;0.20;;;;;;;;;;5048347;28;20021;-77
2021/12/24 01:09:05;;;;;;;0.20;0.20;;;;;;;;;;5046380;28;20037;-77
2021/12/24 01:11:31;;;;;;;0.20;0.20;;;;;;;;;;5043044;28;20459;-77
2021/12/24 01:13:59;;;;;;;0.20;0.20;;;;;;;;;;5041679;28;20105;-77
2021/12/24 01:16:33;;;;;;;0.30;0.30;;;;;;;;;;5043281;28;20369;-81
2021/12/24 01:21:44;;;;;;;0.25;0.25;;;;;;;;;;5041550;28;20028;-81
2021/12/24 01:24:17;;;;;;;0.30;0.30;;;;;;;;;;5039386;28;20052;-81
2021/12/24 01:45:00;;;;;;;0.20;0.20;;;;;;;;;;5042132;28;20057;-80
2021/12/24 01:47:26;;;;;;;0.20;0.20;;;;;;;;;;5040596;28;20500;-78
2021/12/24 01:49:53;;;;;;;0.20;0.20;;;;;;;;;;5041714;28;20303;-78
2021/12/24 01:52:19;;;;;;;0.20;0.20;;;;;;;;;;5042766;28;20488;-78
2021/12/24 01:54:45;;;;;;;0.20;0.20;;;;;;;;;;5040820;28;20040;-78
2021/12/24 01:57:12;;;;;;;0.20;0.20;;;;;;;;;;5043134;28;20040;-78
2021/12/24 01:59:38;;;;;;;0.20;0.20;;;;;;;;;;5045280;28;20740;-79
2021/12/24 02:02:04;;;;;;;0.20;0.20;;;;;;;;;;5047425;28;20025;-79
2021/12/24 02:04:30;;;;;;;0.20;0.20;;;;;;;;;;5046935;28;20028;-79
2021/12/24 02:06:57;;;;;;;0.20;0.20;;;;;;;;;;5041706;28;20440;-79
2021/12/24 02:09:23;;;;;;;0.20;0.20;;;;;;;;;;5039582;28;20048;-78
2021/12/24 02:11:49;;;;;;;0.20;0.20;;;;;;;;;;5043064;28;20110;-81
2021/12/24 02:14:19;;;;;;;0.20;0.20;;;;;;;;;;5043439;28;20024;-81
2021/12/24 02:17:05;;;;;;;0.20;0.20;;;;;;;;;;5032527;28;20092;-79
2021/12/24 02:28:20;;;;;;;0.20;0.20;;;;;;;;;;4982329;28;20068;-78
2021/12/24 02:30:47;;;;;;;0.20;0.20;;;;;;;;;;4980675;28;20161;-78
2021/12/24 02:33:13;;;;;;;0.20;0.20;;;;;;;;;;4982273;28;20525;-78
2021/12/24 02:35:39;;;;;;;0.20;0.20;;;;;;;;;;4981500;28;20056;-78
2021/12/24 02:38:05;;;;;;;0.30;0.30;;;;;;;;;;4980845;28;20472;-79
2021/12/24 02:40:32;;;;;;;0.20;0.20;;;;;;;;;;4966586;28;20034;-79
2021/12/24 02:42:59;;;;;;;0.20;0.20;;;;;;;;;;4982946;28;20069;-81
2021/12/24 02:45:25;;;;;;;;;;;;;;;;;;4981559;28;20050;-80
2021/12/24 02:55:31;;;;;;;0.30;0.30;;;;;;;;;;4980560;28;20044;-79
2021/12/24 02:57:57;;;;;;;0.20;0.20;;;;;;;;;;4983250;28;20418;-79
2021/12/24 03:00:26;;;;;;;0.20;0.20;;;;;;;;;;5040694;28;20068;-79
2021/12/24 03:02:52;;;;;;;0.25;0.25;;;;;;;;;;5042478;28;20032;-79
2021/12/24 03:05:20;;;;;;;0.20;0.20;;;;;;;;;;5043466;28;20044;-80
2021/12/24 03:07:46;;;;;;;0.20;0.20;;;;;;;;;;5043354;28;20079;-80
2021/12/24 03:10:16;;;;;;;0.20;0.20;;;;;;;;;;5044904;28;20099;-79
2021/12/24 03:12:44;;;;;;;0.20;0.20;;;;;;;;;;5043967;28;20029;-79
2021/12/24 03:15:11;;;;;;;0.20;0.20;;;;;;;;;;5042809;28;20036;-79
2021/12/24 03:17:37;;;;;;;0.20;0.20;;;;;;;;;;5044622;28;20024;-79
2021/12/24 03:20:08;;;;;;;0.20;0.20;;;;;;;;;;5044751;28;20043;-79
2021/12/24 03:25:13;;;;;;;0.20;0.20;;;;;;;;;;5042698;28;20082;-80
2021/12/24 03:27:39;;;;;;;0.30;0.30;;;;;;;;;;5047561;28;20052;-79
2021/12/24 03:30:05;;;;;;;0.20;0.20;;;;;;;;;;5044415;28;20044;-79
2021/12/24 03:32:31;;;;;;;0.30;0.30;;;;;;;;;;5037121;28;20021;-80
2021/12/24 03:35:12;;;;;;;0.25;0.25;;;;;;;;;;5043059;28;20211;-80
2021/12/24 03:37:38;;;;;;;0.20;0.20;;;;;;;;;;5042125;28;20099;-80
2021/12/24 03:40:05;;;;;;;0.20;0.20;;;;;;;;;;5044460;28;20040;-80
2021/12/24 03:42:31;;;;;;;0.20;0.20;;;;;;;;;;5036996;28;20040;-78
2021/12/24 03:45:07;;;;;;;0.30;0.30;;;;;;;;;;5045573;28;20044;-79
2021/12/24 03:47:38;;;;;;;0.20;0.20;;;;;;;;;;5044160;28;20140;-79
2021/12/24 03:50:09;;;;;;;0.20;0.20;;;;;;;;;;5050348;28;20044;-78
2021/12/24 03:55:01;;;;;;;0.20;0.20;;;;;;;;;;5047686;28;20037;-78
2021/12/24 03:57:27;;;;;;;0.20;0.20;;;;;;;;;;5042408;28;20025;-78
2021/12/24 03:59:54;;;;;;;0.20;0.20;;;;;;;;;;5047794;28;20055;-77
2021/12/24 04:02:20;;;;;;;;;;;;;;;;;;5043122;28;21748;-77
2021/12/24 04:04:46;;;;;;;0.20;0.20;;;;;;;;;;5048251;28;19913;-77
2021/12/24 04:07:12;;;;;;;0.20;0.20;;;;;;;;;;5048808;28;20393;-79
2021/12/24 04:09:45;;;;;;;0.20;0.20;;;;;;;;;;5039646;28;20048;-77
2021/12/24 04:12:11;;;;;;;0.20;0.20;;;;;;;;;;5041527;28;20029;-77
2021/12/24 04:14:37;;;;;;;0.20;0.20;;;;;;;;;;5040281;28;20067;-78
2021/12/24 04:17:03;;;;;;;0.20;0.20;;;;;;;;;;5034239;28;20060;-77
2021/12/24 04:24:59;;;;;;;0.20;0.20;;;;;;;;;;5048095;28;20064;-77
2021/12/24 04:27:29;;;;;;;0.20;0.20;;;;;;;;;;5041965;28;20021;-77
2021/12/24 04:30:04;;;;;;;0.20;0.20;;;;;;;;;;5041137;28;20820;-77
2021/12/24 04:32:51;;;;;;;0.20;0.20;;;;;;;;;;5043732;28;20021;-77
2021/12/24 04:35:38;;;;;;;0.25;0.25;;;;;;;;;;5045099;28;20029;-77
2021/12/24 04:51:40;;;;;;;0.20;0.20;;;;;;;;;;5046942;28;20095;-79
2021/12/24 05:05:19;;;;;;;0.20;0.20;;;;;;;;;;4983844;28;20045;-77
2021/12/24 05:10:18;;;;;;;0.20;0.20;;;;;;;;;;4985631;28;20561;-77
2021/12/24 05:12:44;;;;;;;0.20;0.20;;;;;;;;;;4968276;28;20129;-78
2021/12/24 05:15:11;;;;;;;0.22;0.22;;;;;;;;;;4986583;28;20033;-78
2021/12/24 05:18:06;;;;;;;0.20;0.20;;;;;;;;;;4989363;28;20544;-78
2021/12/24 05:23:17;;;;;;;0.20;0.20;;;;;;;;;;4980910;28;20096;-78
2021/12/24 05:25:44;;;;;;;0.20;0.20;;;;;;;;;;4979857;28;20141;-79
2021/12/24 05:28:11;;;;;;;0.20;0.20;;;;;;;;;;4983986;28;20066;-78
2021/12/24 05:30:38;;;;;;;0.20;0.20;;;;;;;;;;4986754;28;20064;-79
2021/12/24 05:33:04;;;;;;;0.20;0.20;;;;;;;;;;4986367;28;20031;-79
2021/12/24 05:35:30;;;;;;;0.20;0.20;;;;;;;;;;4988542;28;20121;-79
2021/12/24 05:37:56;;;;;;;0.23;0.23;;;;;;;;;;5001067;28;20427;-79
2021/12/24 05:40:22;;;;;;;0.20;0.20;;;;;;;;;;5043485;28;20116;-78
2021/12/24 05:42:48;;;;;;;0.20;0.20;;;;;;;;;;5045195;28;20743;-79
2021/12/24 05:45:14;;;;;;;0.30;0.30;;;;;;;;;;5049703;28;20052;-80
2021/12/24 05:47:40;;;;;;;0.20;0.20;;;;;;;;;;5048818;28;20025;-80
2021/12/24 05:50:07;;;;;;;0.20;0.20;;;;;;;;;;5034504;28;20037;-80
2021/12/24 05:52:33;;;;;;;0.20;0.20;;;;;;;;;;5040966;28;20649;-80
2021/12/24 05:55:00;;;;;;;0.20;0.20;;;;;;;;;;5033801;28;20483;-81
2021/12/24 05:57:28;;;;;;;0.30;0.30;;;;;;;;;;5034362;28;20045;-81
2021/12/24 05:59:54;;;;;;;0.20;0.20;;;;;;;;;;5043847;28;20086;-80
2021/12/24 06:02:20;;;;;;;0.20;0.20;;;;;;;;;;5047813;28;20036;-81
2021/12/24 06:04:46;;;;;;;0.20;0.20;;;;;;;;;;5047544;28;20033;-82
2021/12/24 06:07:12;;;;;;;0.20;0.20;;;;;;;;;;5046377;28;20105;-81
2021/12/24 06:09:38;;;;;;;0.20;0.20;;;;;;;;;;5047131;28;20079;-80
2021/12/24 06:12:05;;;;;;;0.20;0.20;;;;;;;;;;5049966;28;20025;-79
2021/12/24 06:14:31;;;;;;;0.25;0.25;;;;;;;;;;5043245;28;20033;-78
2021/12/24 06:17:09;;;;;;;0.20;0.20;;;;;;;;;;5044778;28;20050;-79
2021/12/24 06:19:35;;;;;;;0.20;0.20;;;;;;;;;;5046527;28;20283;-79
2021/12/24 06:22:01;;;;;;;0.20;0.20;;;;;;;;;;5044817;28;20543;-79
2021/12/24 06:24:27;;;;;;;0.20;0.20;;;;;;;;;;5047951;28;20099;-80
2021/12/24 06:26:53;;;;;;;0.20;0.20;;;;;;;;;;5047626;28;20075;-79
2021/12/24 06:29:21;;;;;;;0.20;0.20;;;;;;;;;;5046102;28;20048;-80
2021/12/24 06:31:47;;;;;;;0.20;0.20;;;;;;;;;;5042495;28;20025;-79
2021/12/24 06:34:13;;;;;;;0.20;0.20;;;;;;;;;;5044517;28;20032;-79
2021/12/24 06:36:42;;;;;;;0.20;0.20;;;;;;;;;;5042629;28;20033;-78
2021/12/24 06:39:08;;;;;;;0.20;0.20;;;;;;;;;;5043385;28;20070;-78
2021/12/24 06:41:34;;;;;;;0.20;0.20;;;;;;;;;;5046182;28;20119;-85
2021/12/24 06:44:01;;;;;;;0.20;0.20;;;;;;;;;;5053331;28;20055;-85
2021/12/24 06:46:27;;;;;;;0.20;0.20;;;;;;;;;;5044541;28;20029;-80
2021/12/24 06:48:56;;;;;;;0.20;0.20;;;;;;;;;;5034555;28;20053;-79
2021/12/24 06:51:25;;;;;;;0.20;0.20;;;;;;;;;;5044083;28;20076;-79
2021/12/24 06:53:52;;;;;;;0.20;0.20;;;;;;;;;;5047357;28;20561;-78
2021/12/24 06:56:18;;;;;;;0.20;0.20;;;;;;;;;;5046087;28;20113;-78
2021/12/24 06:58:44;;;;;;;0.20;0.20;;;;;;;;;;5046510;28;20904;-78
2021/12/24 07:01:10;;;;;;;0.20;0.20;;;;;;;;;;5050675;28;20033;-77
2021/12/24 07:03:37;;;;;;;0.20;0.20;;;;;;;;;;5051773;28;20021;-79
2021/12/24 07:06:03;;;;;;;0.20;0.20;;;;;;;;;;5046051;28;20030;-80
2021/12/24 07:08:30;;;;;;;0.20;0.20;;;;;;;;;;5044214;28;20029;-78
2021/12/24 07:10:56;;;;;;;0.20;0.20;;;;;;;;;;5045613;28;20033;-79
2021/12/24 07:13:22;;;;;;;0.20;0.20;;;;;;;;;;5048309;28;20021;-79
2021/12/24 07:15:48;;;;;;;0.20;0.20;;;;;;;;;;5047570;28;20687;-79
2021/12/24 07:18:14;;;;;;;0.20;0.20;;;;;;;;;;5047232;28;20028;-78
2021/12/24 07:20:40;;;;;;;0.20;0.20;;;;;;;;;;5048954;28;20032;-79
2021/12/24 07:23:06;;;;;;;0.20;0.20;;;;;;;;;;5044971;28;20276;-82
2021/12/24 07:25:32;;;;;;;0.20;0.20;;;;;;;;;;5048682;28;20040;-80
2021/12/24 07:27:58;;;;;;;0.20;0.20;;;;;;;;;;5049513;28;20622;-82
2021/12/24 07:30:24;;;;;;;0.20;0.20;;;;;;;;;;5048447;28;20451;-81
2021/12/24 07:32:50;;;;;;;0.20;0.20;;;;;;;;;;5047465;28;20033;-77
2021/12/24 07:35:17;;;;;;;0.20;0.20;;;;;;;;;;5045912;28;20280;-78
2021/12/24 07:37:43;;;;;;;0.20;0.20;;;;;;;;;;5045850;28;20029;-78
2021/12/24 07:40:10;;;;;;;0.20;0.20;;;;;;;;;;5047399;28;20517;-80
2021/12/24 07:42:37;;;;;;;0.20;0.20;;;;;;;;;;5046934;28;20111;-80
2021/12/24 07:45:05;;;;;;;0.20;0.20;;;;;;;;;;5047421;28;20574;-81
2021/12/24 07:47:36;;;;;;;0.20;0.20;;;;;;;;;;5047689;28;20478;-79
2021/12/24 07:50:15;;;;;;;0.20;0.20;;;;;;;;;;5044183;28;20570;-80
2021/12/24 07:52:41;;;;;;;0.20;0.20;;;;;;;;;;5046056;28;20032;-81
2021/12/24 07:55:09;;;;;;;0.20;0.20;;;;;;;;;;5049605;28;20032;-80
2021/12/24 07:57:35;;;;;;;0.20;0.20;;;;;;;;;;5038726;28;20040;-80
2021/12/24 08:00:01;;;;;;;0.20;0.20;;;;;;;;;;5042571;28;20062;-84
2021/12/24 08:02:29;;;;;;;0.20;0.20;;;;;;;;;;5044152;28;20100;-80
2021/12/24 08:04:56;;;;;;;0.20;0.20;;;;;;;;;;5048047;28;20045;-84
2021/12/24 08:07:22;;;;;;;0.10;0.10;;;;;;;;;;5040066;28;20412;-85
2021/12/24 08:09:49;;;;;;;0.17;0.17;;;;;;;;;;5041741;28;20052;-85
2021/12/24 08:12:15;;;;;;;0.20;0.20;;;;;;;;;;5041916;28;20861;-84
2021/12/24 08:14:41;;;;;;;0.10;0.10;;;;;;;;;;5037114;28;20037;-84
2021/12/24 08:17:08;;;;;;;0.20;0.20;;;;;;;;;;5041178;28;20033;-85
2021/12/24 08:19:34;;;;;;;0.20;0.20;;;;;;;;;;5042892;28;20271;-84
2021/12/24 08:22:00;;;;;;;0.20;0.20;;;;;;;;;;5044872;28;20041;-84
2021/12/24 08:24:27;;;;;;;0.20;0.20;;;;;;;;;;5043600;28;20760;-84
2021/12/24 08:26:53;;;;;;;0.13;0.13;;;;;;;;;;5042870;28;20029;-84
2021/12/24 08:29:21;;;;;;;0.20;0.20;;;;;;;;;;5042992;28;20044;-85
2021/12/24 08:31:48;;;;;;;0.20;0.20;;;;;;;;;;5043959;28;20033;-85
2021/12/24 08:34:15;;;;;;;0.20;0.20;;;;;;;;;;5058730;28;20102;-84
2021/12/24 08:36:41;;;;;;;0.20;0.20;;;;;;;;;;5049280;28;20021;-84
2021/12/24 08:39:07;;;;;;;0.20;0.20;;;;;;;;;;5047587;28;20044;-84
2021/12/24 08:41:34;;;;;;;0.20;0.20;;;;;;;;;;5047627;28;20021;-84
2021/12/24 08:44:00;;;;;;;0.20;0.20;;;;;;;;;;5043274;28;20531;-84
2021/12/24 08:46:26;;;;;;;0.20;0.20;;;;;;;;;;5049344;28;20029;-84
2021/12/24 08:48:52;;;;;;;0.20;0.20;;;;;;;;;;5047386;28;20067;-85
2021/12/24 08:51:18;;;;;;;0.20;0.20;;;;;;;;;;5047460;28;20588;-84
2021/12/24 08:53:44;;;;;;;0.20;0.20;;;;;;;;;;5047210;28;20028;-84
2021/12/24 08:56:10;;;;;;;0.20;0.20;;;;;;;;;;5044389;28;20036;-84
2021/12/24 08:58:37;;;;;;;0.20;0.20;;;;;;;;;;5046542;28;20028;-84
2021/12/24 09:01:03;;;;;;;;;;;;;;;;;;5047532;28;20444;-85
2021/12/24 09:03:29;;;;;;;0.20;0.20;;;;;;;;;;5042052;28;19913;-85
2021/12/24 09:05:55;;;;;;;0.20;0.20;;;;;;;;;;5043372;28;20032;-85
2021/12/24 09:08:21;;;;;;;0.20;0.20;;;;;;;;;;5041179;28;20087;-84
2021/12/24 09:10:47;;;;;;;0.20;0.20;;;;;;;;;;5040935;28;20041;-85
2021/12/24 09:13:13;;;;;;;0.20;0.20;;;;;;;;;;5040139;28;20617;-85
2021/12/24 09:15:40;;;;;;;0.20;0.20;;;;;;;;;;5052891;28;20111;-84
2021/12/24 09:18:06;;;;;;;0.20;0.20;;;;;;;;;;5050650;28;20430;-85
2021/12/24 09:20:37;;;;;;;0.20;0.20;;;;;;;;;;5045594;28;20019;-84
2021/12/24 09:23:05;;;;;;;0.20;0.20;;;;;;;;;;5043121;28;20037;-85
2021/12/24 09:25:31;;;;;;;0.20;0.20;;;;;;;;;;5047797;28;20492;-83
2021/12/24 09:27:58;;;;;;;0.20;0.20;;;;;;;;;;5041535;28;20064;-85
2021/12/24 09:30:24;;;;;;;0.20;0.20;;;;;;;;;;5036946;28;20127;-85
2021/12/24 09:32:50;;;;;;;0.20;0.20;;;;;;;;;;5036124;28;20033;-85
2021/12/24 09:35:17;;;;;;;0.20;0.20;;;;;;;;;;5039998;28;20029;-84
2021/12/24 09:37:43;;;;;;;0.20;0.20;;;;;;;;;;5040605;28;20033;-84
2021/12/24 09:40:11;;;;;;;0.20;0.20;;;;;;;;;;5037866;28;20086;-85
2021/12/24 09:42:37;;;;;;;0.20;0.20;;;;;;;;;;5039583;28;20104;-85
2021/12/24 09:45:04;;;;;;;0.20;0.20;;;;;;;;;;5032359;28;20614;-85
2021/12/24 09:47:30;;;;;;;;;;;;;;;;;;5020539;28;20029;-84
2021/12/24 09:49:56;;;;;;;0.20;0.20;;;;;;;;;;5020329;28;19975;-85
2021/12/24 09:52:22;;;;;;;0.20;0.20;;;;;;;;;;5024968;28;20022;-85
2021/12/24 09:54:49;;;;;;;0.20;0.20;;;;;;;;;;5031798;28;20041;-86
2021/12/24 09:57:15;;;;;;;;;;;;;;;;;;5024540;28;20079;-85
2021/12/24 09:59:41;;;;;;;0.20;0.20;;;;;;;;;;5026853;28;19916;-85
2021/12/24 10:02:08;;;;;;;0.20;0.20;;;;;;;;;;5021016;28;20034;-86
2021/12/24 10:04:35;;;;;;;0.10;0.10;;;;;;;;;;5023308;28;20136;-85
2021/12/24 10:07:03;;;;;;;0.10;0.10;;;;;;;;;;5024725;28;20244;-86
2021/12/24 10:09:40;;;;;;;0.20;0.20;;;;;;;;;;5020762;28;20572;-86
2021/12/24 10:12:27;;;;;;;0.20;0.20;;;;;;;;;;5020978;28;20033;-85
2021/12/24 10:14:57;;;;;;;0.20;0.20;;;;;;;;;;5021559;28;20052;-86
2021/12/24 10:17:25;;;;;;;0.10;0.10;;;;;;;;;;5023940;28;20044;-85
2021/12/24 10:19:56;;;;;;;0.10;0.10;;;;;;;;;;5021243;28;20021;-85
2021/12/24 10:22:22;;;;;;;0.15;0.15;;;;;;;;;;5027449;28;20033;-85
2021/12/24 10:25:07;;;;;;;0.10;0.10;;;;;;;;;;5025923;28;20034;-85
2021/12/24 10:27:34;;;;;;;0.20;0.20;;;;;;;;;;5025607;28;20067;-86
2021/12/24 10:30:00;;;;;;;;;;;;;;;;;;5026692;28;20576;-85
2021/12/24 10:32:26;;;;;;;0.20;0.20;;;;;;;;;;5021534;28;19913;-85
2021/12/24 10:34:53;;;;;;;0.20;0.20;;;;;;;;;;5037411;28;20087;-84
2021/12/24 10:37:24;;;;;;;0.10;0.10;;;;;;;;;;5026333;28;20029;-86
2021/12/24 10:39:52;;;;;;;0.20;0.20;;;;;;;;;;5020861;28;20537;-85
2021/12/24 10:42:20;;;;;;;0.20;0.20;;;;;;;;;;5026462;28;20021;-86
2021/12/24 10:44:48;;;;;;;0.20;0.20;;;;;;;;;;5041133;28;20740;-85
2021/12/24 10:47:19;;;;;;;0.20;0.20;;;;;;;;;;5026890;28;20112;-85
2021/12/24 10:52:32;;;;;;;0.20;0.20;;;;;;;;;;5044497;28;20811;-86
2021/12/24 10:54:59;;;;;;;0.20;0.20;;;;;;;;;;5046892;28;20027;-86
2021/12/24 10:57:27;;;;;;;0.20;0.20;;;;;;;;;;5047727;28;20068;-84
2021/12/24 10:59:54;;;;;;;0.20;0.20;;;;;;;;;;5046172;28;20036;-86
2021/12/24 11:02:23;;;;;;;0.20;0.20;;;;;;;;;;5045730;28;20488;-85
2021/12/24 11:04:51;;;;;;;0.22;0.22;;;;;;;;;;5047080;28;20074;-84
2021/12/24 11:07:34;;;;;;;0.20;0.20;;;;;;;;;;5051022;28;20021;-84
2021/12/24 11:10:19;;;;;;;0.20;0.20;;;;;;;;;;5045794;28;20542;-84
2021/12/24 11:12:46;;;;;;;0.20;0.20;;;;;;;;;;5046730;28;20539;-84
2021/12/24 11:15:26;;;;;;;0.20;0.20;;;;;;;;;;5048346;28;20120;-85
2021/12/24 11:17:54;;;;;;;0.20;0.20;;;;;;;;;;5047545;28;20024;-83
2021/12/24 11:20:21;;;;;;;0.20;0.20;;;;;;;;;;5043734;28;20032;-86
2021/12/24 11:22:55;;;;;;;0.20;0.20;;;;;;;;;;5044608;28;20032;-84
2021/12/24 11:25:22;;;;;;;0.20;0.20;;;;;;;;;;5046449;28;20487;-84
2021/12/24 11:27:48;;;;;;;0.20;0.20;;;;;;;;;;5041534;28;20041;-85
2021/12/24 11:30:15;;;;;;;0.20;0.20;;;;;;;;;;5043377;28;20040;-85
2021/12/24 11:32:40;;;;;;;;;;;;;;;;;;5042555;28;20024;-85
2021/12/24 11:35:07;;;;;;;0.20;0.20;;;;;;;;;;5042686;28;20563;-85
2021/12/24 11:37:34;;;;;;;0.20;0.20;;;;;;;;;;5043032;28;20029;-84
2021/12/24 11:40:02;;;;;;;0.25;0.25;;;;;;;;;;5039876;28;20072;-85
2021/12/24 11:42:31;;;;;;;0.20;0.20;;;;;;;;;;5045828;28;20060;-85
2021/12/24 11:44:57;;;;;;;0.20;0.20;;;;;;;;;;5038581;28;20064;-85
2021/12/24 11:47:23;;;;;;;0.20;0.20;;;;;;;;;;5042093;28;20279;-84
2021/12/24 11:49:49;;;;;;;0.20;0.20;;;;;;;;;;5040229;28;20540;-85
2021/12/24 11:52:16;;;;;;;0.20;0.20;;;;;;;;;;5042060;28;20029;-85
2021/12/24 11:54:42;;;;;;;0.20;0.20;;;;;;;;;;5043262;28;20068;-85
2021/12/24 11:57:27;;;;;;;0.20;0.20;;;;;;;;;;5043018;28;20100;-85
2021/12/24 11:59:53;;;;;;;0.20;0.20;;;;;;;;;;5040031;28;20049;-84
2021/12/24 12:02:35;;;;;;;0.20;0.20;;;;;;;;;;5041745;28;20032;-85
2021/12/24 12:05:11;;;;;;;0.20;0.20;;;;;;;;;;5041200;28;20896;-85
2021/12/24 12:07:37;;;;;;;0.20;0.20;;;;;;;;;;5044205;28;20017;-85
2021/12/24 12:10:04;;;;;;;0.20;0.20;;;;;;;;;;5043889;28;20124;-84
2021/12/24 12:12:33;;;;;;;0.20;0.20;;;;;;;;;;5040789;28;20025;-85
2021/12/24 12:15:18;;;;;;;0.20;0.20;;;;;;;;;;5041860;28;20036;-84
2021/12/24 12:17:51;;;;;;;0.20;0.20;;;;;;;;;;5041976;28;20248;-85
2021/12/24 12:20:41;;;;;;;0.20;0.20;;;;;;;;;;5039525;28;20036;-86
2021/12/24 12:23:14;;;;;;;0.20;0.20;;;;;;;;;;5041309;28;20386;-85
2021/12/24 12:25:41;;;;;;;0.20;0.20;;;;;;;;;;5040506;28;20930;-85
2021/12/24 12:28:07;;;;;;;;;;;;;;;;;;5042888;28;20021;-86
2021/12/24 12:30:47;;;;;;;0.20;0.20;;;;;;;;;;5041555;28;20467;-85
2021/12/24 12:33:22;;;;;;;0.20;0.20;;;;;;;;;;5036810;28;20064;-85
2021/12/24 12:35:49;;;;;;;0.20;0.20;;;;;;;;;;5024855;28;20064;-86
2021/12/24 12:38:25;;;;;;;0.20;0.20;;;;;;;;;;5040554;28;20025;-86
2021/12/24 12:40:52;;;;;;;0.20;0.20;;;;;;;;;;5039494;28;20036;-85
2021/12/24 12:43:19;;;;;;;0.20;0.20;;;;;;;;;;5044268;28;20049;-86
2021/12/24 12:45:47;;;;;;;0.20;0.20;;;;;;;;;;5043572;28;20816;-87
2021/12/24 12:48:22;;;;;;;0.20;0.20;;;;;;;;;;5042970;28;20381;-85
2021/12/24 12:50:57;;;;;;;0.20;0.20;;;;;;;;;;5042524;28;20547;-86
2021/12/24 12:53:24;;;;;;;0.20;0.20;;;;;;;;;;5041575;28;20106;-87
2021/12/24 12:56:09;;;;;;;0.20;0.20;;;;;;;;;;5041994;28;20036;-86
2021/12/24 12:58:35;;;;;;;0.20;0.20;;;;;;;;;;5043313;28;20028;-86
2021/12/24 13:01:03;;;;;;;0.20;0.20;;;;;;;;;;5043391;28;20036;-86
2021/12/24 13:03:29;;;;;;;0.20;0.20;;;;;;;;;;5043387;28;20382;-85
2021/12/24 13:05:57;;;;;;;0.20;0.20;;;;;;;;;;5044157;28;20149;-85
2021/12/24 13:08:24;;;;;;;0.20;0.20;;;;;;;;;;5043352;28;20017;-86
2021/12/24 13:10:50;;;;;;;;;;;;;;;;;;5042667;28;20068;-85
2021/12/24 13:13:16;;;;;;;0.20;0.20;;;;;;;;;;5043997;28;19955;-85
2021/12/24 13:15:44;;;;;;;0.20;0.20;;;;;;;;;;5044911;28;20057;-86
2021/12/24 13:18:36;;;;;;;0.20;0.20;;;;;;;;;;5044358;28;20112;-85
2021/12/24 13:23:30;;;;;;;0.20;0.20;;;;;;;;;;5039231;28;20124;-86
2021/12/24 13:25:56;;;;;;;0.20;0.20;;;;;;;;;;5042460;28;20109;-85
2021/12/24 13:28:22;;;;;;;0.20;0.20;;;;;;;;;;5041432;28;20029;-86
2021/12/24 13:30:48;;;;;;;0.20;0.20;;;;;;;;;;5040076;28;20129;-86
2021/12/24 13:33:14;;;;;;;0.20;0.20;;;;;;;;;;5040123;28;20040;-86
2021/12/24 13:35:44;;;;;;;0.20;0.20;;;;;;;;;;5040432;28;20037;-86
2021/12/24 13:38:17;;;;;;;0.20;0.20;;;;;;;;;;5037242;28;20132;-86
2021/12/24 13:40:44;;;;;;;0.20;0.20;;;;;;;;;;5036885;28;20883;-86
2021/12/24 13:43:13;;;;;;;0.20;0.20;;;;;;;;;;5041883;28;20044;-86
2021/12/24 13:45:40;;;;;;;0.20;0.20;;;;;;;;;;5042131;28;20492;-86
2021/12/24 13:48:17;;;;;;;0.20;0.20;;;;;;;;;;5042018;28;20040;-85
2021/12/24 13:56:24;;;;;;;0.20;0.20;;;;;;;;;;5041748;28;20067;-86
2021/12/24 13:58:50;;;;;;;0.22;0.22;;;;;;;;;;5042806;28;20037;-86
2021/12/24 14:01:16;;;;;;;0.20;0.20;;;;;;;;;;5043726;28;20094;-86
2021/12/24 14:03:43;;;;;;;0.30;0.30;;;;;;;;;;5042285;28;20025;-85
2021/12/24 14:06:11;;;;;;;0.20;0.20;;;;;;;;;;5042769;28;20275;-86
2021/12/24 14:08:37;;;;;;;0.20;0.20;;;;;;;;;;5041612;28;20279;-86
2021/12/24 14:11:15;;;;;;;0.20;0.20;;;;;;;;;;5041241;28;20045;-87
2021/12/24 14:13:46;;;;;;;0.30;0.30;;;;;;;;;;5039762;28;20128;-85
2021/12/24 14:19:08;;;;;;;0.20;0.20;;;;;;;;;;5046869;28;20049;-85
2021/12/24 14:24:18;;;;;;;0.25;0.25;;;;;;;;;;5044880;28;20021;-85
2021/12/24 14:26:44;;;;;;;0.20;0.20;;;;;;;;;;5044776;28;20033;-86
2021/12/24 14:29:10;;;;;;;0.20;0.20;;;;;;;;;;5044412;28;20028;-85
2021/12/24 14:31:51;;;;;;;0.20;0.20;;;;;;;;;;5045419;28;20090;-86
2021/12/24 14:34:32;;;;;;;0.20;0.20;;;;;;;;;;5046794;28;20049;-86
2021/12/24 14:36:59;;;;;;;0.20;0.20;;;;;;;;;;5044601;28;20065;-85
2021/12/24 14:39:24;;;;;;;;;;;;;;;;;;5044662;28;20986;-86
2021/12/24 14:42:09;;;;;;;0.20;0.20;;;;;;;;;;5044057;28;20027;-86
2021/12/24 14:44:35;;;;;;;0.20;0.20;;;;;;;;;;5043507;28;20060;-87
2021/12/24 14:47:01;;;;;;;0.30;0.30;;;;;;;;;;5040291;28;20052;-85
2021/12/24 14:49:31;;;;;;;0.20;0.20;;;;;;;;;;5045141;28;20028;-86
2021/12/24 14:52:13;;;;;;;0.20;0.20;;;;;;;;;;5042455;28;20060;-86
2021/12/24 14:54:59;;;;;;;0.20;0.20;;;;;;;;;;5046407;28;20144;-86
2021/12/24 14:57:25;;;;;;;0.20;0.20;;;;;;;;;;5044684;28;20029;-86
2021/12/24 14:59:51;;;;;;;0.20;0.20;;;;;;;;;;5041162;28;20041;-85
2021/12/24 15:02:17;;;;;;;0.20;0.20;;;;;;;;;;5045681;28;20086;-86
2021/12/24 15:04:43;;;;;;;0.30;0.30;;;;;;;;;;5043421;28;20579;-85
2021/12/24 15:07:10;;;;;;;0.20;0.20;;;;;;;;;;5041292;28;20045;-86
2021/12/24 15:09:38;;;;;;;0.20;0.20;;;;;;;;;;5042773;28;20028;-86
2021/12/24 15:12:22;;;;;;;0.20;0.20;;;;;;;;;;5043903;28;20021;-86
2021/12/24 15:14:48;;;;;;;0.20;0.20;;;;;;;;;;5044274;28;20495;-86
2021/12/24 15:17:14;;;;;;;0.20;0.20;;;;;;;;;;5045539;28;20044;-86
2021/12/24 15:19:40;;;;;;;0.20;0.20;;;;;;;;;;5040482;28;20039;-81
2021/12/24 15:22:06;;;;;;;0.20;0.20;;;;;;;;;;5041609;28;20673;-81
2021/12/24 15:24:32;;;;;;;0.20;0.20;;;;;;;;;;5047311;28;20036;-82
2021/12/24 15:26:58;;;;;;;0.30;0.30;;;;;;;;;;5046081;28;20026;-81
2021/12/24 15:29:25;;;;;;;0.20;0.20;;;;;;;;;;5047116;28;20041;-81
2021/12/24 15:31:51;;;;;;;0.20;0.20;;;;;;;;;;5047244;28;20039;-82
2021/12/24 15:34:17;;;;;;;0.20;0.20;;;;;;;;;;5045416;28;20029;-80
2021/12/24 15:36:43;;;;;;;0.20;0.20;;;;;;;;;;5054733;28;20287;-80
2021/12/24 15:39:09;;;;;;;0.20;0.20;;;;;;;;;;5055206;28;20463;-81
2021/12/24 15:41:35;;;;;;;0.20;0.20;;;;;;;;;;5048602;28;20031;-80
2021/12/24 15:44:01;;;;;;;0.20;0.20;;;;;;;;;;5044226;28;20076;-81
2021/12/24 15:46:27;;;;;;;0.20;0.20;;;;;;;;;;5033296;28;20032;-81
2021/12/24 15:48:53;;;;;;;0.20;0.20;;;;;;;;;;5045847;28;20040;-80
2021/12/24 15:51:19;;;;;;;0.20;0.20;;;;;;;;;;5046876;28;20033;-81
2021/12/24 15:53:45;;;;;;;0.20;0.20;;;;;;;;;;5047402;28;20039;-80
2021/12/24 15:56:11;;;;;;;0.20;0.20;;;;;;;;;;5045083;28;20040;-80
2021/12/24 15:58:39;;;;;;;0.20;0.20;;;;;;;;;;5047291;28;20104;-81
2021/12/24 16:01:05;;;;;;;0.20;0.20;;;;;;;;;;5044215;28;20148;-80
2021/12/24 16:03:32;;;;;;;0.30;0.30;;;;;;;;;;5045465;28;20489;-76
2021/12/24 16:05:58;;;;;;;0.20;0.20;;;;;;;;;;5043768;28;20035;-78
2021/12/24 16:08:24;;;;;;;0.20;0.20;;;;;;;;;;5043395;28;20569;-78
2021/12/24 16:10:50;;;;;;;0.20;0.20;;;;;;;;;;5045124;28;20476;-79
2021/12/24 16:13:19;;;;;;;0.20;0.20;;;;;;;;;;5048120;28;20032;-80
2021/12/24 16:15:47;;;;;;;0.30;0.30;;;;;;;;;;5047663;28;20726;-82
2021/12/24 16:18:17;;;;;;;0.28;0.28;;;;;;;;;;5045628;28;20056;-84
2021/12/24 16:20:43;;;;;;;0.20;0.20;;;;;;;;;;5043236;28;20025;-81
2021/12/24 16:23:10;;;;;;;0.20;0.20;;;;;;;;;;5043602;28;20412;-81
2021/12/24 16:25:36;;;;;;;0.20;0.20;;;;;;;;;;5046380;28;20031;-81
2021/12/24 16:28:03;;;;;;;0.20;0.20;;;;;;;;;;5044814;28;20044;-78
2021/12/24 16:30:29;;;;;;;0.20;0.20;;;;;;;;;;5044308;28;20504;-77
2021/12/24 16:32:55;;;;;;;0.20;0.20;;;;;;;;;;5042814;28;20025;-84
2021/12/24 16:35:23;;;;;;;0.30;0.30;;;;;;;;;;5040790;28;20063;-80
2021/12/24 16:37:52;;;;;;;0.30;0.30;;;;;;;;;;5035849;28;20037;-81
2021/12/24 16:40:20;;;;;;;0.30;0.30;;;;;;;;;;5037949;28;20028;-81
2021/12/24 16:42:52;;;;;;;0.30;0.30;;;;;;;;;;5041165;28;20095;-78